PWSweather.com
Personal Weather Stations
Station Observations
ON7DKEWX
Knokke Heist, Knokke HeistBE 8300

Knokke HeistKnokke HeistBE 8300

Lat: 51.32199, Lon: 3.28778

Elevation: 5

Station Type: Davis Vantage Pro 2

www.weerstationheist.be

High Low Average
Temperature 65.4°F18.6°C 56.5°F13.6°C 61.3°F16.3°C
Dew Point 54.8°F12.7°C 50.2°F10.1°C 52.9°F11.6°C
Winds 5.8 mph 9.3 kmh Calm Calm 3.0 mph NW4.8 kmh NW
Wind Gusts 12.7 mph20.4 kmh -- 6.0 mph9.7 kmh
Humidity 88% 60% 74%
Pressure 30.09 in1019.0 mb 30.03 in1016.9 mb -
Precipitation 0.00 in0.0 mm - -
Hour Temp Dew Point Humidity Winds Wind Gusts Pressure Precip Precip Rate Daily Precip Total
12:00 AM 56.5°F13.6°C 52.4°F11.3°C 86% 1.2 mph NW1.9 kmh NW 2.3 mph3.7 kmh 30.04 in1017.3 mb - 0.00 in0.0 mm 0.00 in0.0 mm
01:00 AM 56.9°F13.8°C 53.4°F11.9°C 88% 2.3 mph NW3.7 kmh NW 5.8 mph9.3 kmh 30.04 in1017.3 mb - 0.00 in0.0 mm 0.00 in0.0 mm
02:00 AM 57.1°F13.9°C 53.6°F12.0°C 88% 3.5 mph NW5.6 kmh NW 5.8 mph9.3 kmh 30.04 in1017.3 mb - 0.00 in0.0 mm 0.00 in0.0 mm
03:00 AM 57.1°F13.9°C 52.3°F11.3°C 84% 5.8 mph NW9.3 kmh NW 6.9 mph11.1 kmh 30.03 in1016.9 mb - 0.00 in0.0 mm 0.00 in0.0 mm
04:00 AM 57.7°F14.3°C 52.9°F11.6°C 84% 2.3 mph NW3.7 kmh NW 5.8 mph9.3 kmh 30.04 in1017.3 mb - 0.00 in0.0 mm 0.00 in0.0 mm
05:00 AM 57.4°F14.1°C 52.9°F11.6°C 85% 5.8 mph NNW9.3 kmh NNW 12.7 mph20.4 kmh 30.05 in1017.6 mb - 0.00 in0.0 mm 0.00 in0.0 mm
06:00 AM 57.6°F14.2°C 53.8°F12.1°C 87% 4.6 mph NNW7.4 kmh NNW 10.4 mph16.7 kmh 30.05 in1017.6 mb - 0.00 in0.0 mm 0.00 in0.0 mm
07:00 AM 58.4°F14.7°C 53.6°F12.0°C 84% 3.5 mph NW5.6 kmh NW 3.5 mph5.6 kmh 30.06 in1017.9 mb - 0.00 in0.0 mm 0.00 in0.0 mm
08:00 AM 60.0°F15.6°C 53.5°F11.9°C 79% 5.8 mph WNW9.3 kmh WNW 11.5 mph18.5 kmh 30.07 in1018.3 mb - 0.00 in0.0 mm 0.00 in0.0 mm
09:00 AM 62.9°F17.2°C 54.5°F12.5°C 74% 2.3 mph NW3.7 kmh NW 4.6 mph7.4 kmh 30.07 in1018.3 mb - 0.00 in0.0 mm 0.00 in0.0 mm
10:00 AM 62.7°F17.1°C 54.3°F12.4°C 74% 3.5 mph NW5.6 kmh NW 10.4 mph16.7 kmh 30.08 in1018.6 mb - 0.00 in0.0 mm 0.00 in0.0 mm
11:00 AM 64.0°F17.8°C 54.8°F12.7°C 72% 5.8 mph WNW9.3 kmh WNW 9.2 mph14.8 kmh 30.09 in1019.0 mb - 0.00 in0.0 mm 0.00 in0.0 mm
12:00 PM 64.7°F18.2°C 54.3°F12.4°C 69% 3.5 mph NW5.6 kmh NW 8.1 mph13.0 kmh 30.08 in1018.6 mb - 0.00 in0.0 mm 0.00 in0.0 mm
01:00 PM 65.0°F18.3°C 53.4°F11.9°C 66% 3.5 mph WNW5.6 kmh WNW 10.4 mph16.7 kmh 30.08 in1018.6 mb - 0.00 in0.0 mm 0.00 in0.0 mm
02:00 PM 64.8°F18.2°C 51.0°F10.6°C 61% 4.6 mph W7.4 kmh W 9.2 mph14.8 kmh 30.07 in1018.3 mb - 0.00 in0.0 mm 0.00 in0.0 mm
03:00 PM 64.4°F18.0°C 53.6°F12.0°C 68% 4.6 mph W7.4 kmh W 10.4 mph16.7 kmh 30.07 in1018.3 mb - 0.00 in0.0 mm 0.00 in0.0 mm
04:00 PM 63.9°F17.7°C 53.1°F11.7°C 68% 3.5 mph WNW5.6 kmh WNW 5.8 mph9.3 kmh 30.07 in1018.3 mb - 0.00 in0.0 mm 0.00 in0.0 mm
05:00 PM 64.2°F17.9°C 51.4°F10.8°C 63% 4.6 mph WNW7.4 kmh WNW 8.1 mph13.0 kmh 30.05 in1017.6 mb - 0.00 in0.0 mm 0.00 in0.0 mm
06:00 PM 64.3°F17.9°C 50.2°F10.1°C 60% Calm Calm 3.5 mph5.6 kmh 30.05 in1017.6 mb - 0.00 in0.0 mm 0.00 in0.0 mm
07:00 PM 65.4°F18.6°C 51.1°F10.6°C 60% 1.2 mph WSW1.9 kmh WSW 1.2 mph1.9 kmh 30.04 in1017.3 mb - 0.00 in0.0 mm 0.00 in0.0 mm
08:00 PM 64.5°F18.1°C 52.5°F11.4°C 65% Calm Calm 1.2 mph1.9 kmh 30.04 in1017.3 mb - 0.00 in0.0 mm 0.00 in0.0 mm
09:00 PM 62.9°F17.2°C 52.6°F11.4°C 69% Calm Calm -- 30.03 in1016.9 mb - 0.00 in0.0 mm 0.00 in0.0 mm
10:00 PM 60.5°F15.8°C 51.8°F11.0°C 73% Calm Calm -- 30.03 in1016.9 mb - 0.00 in0.0 mm 0.00 in0.0 mm
11:00 PM 58.8°F14.9°C 51.6°F10.9°C 77% Calm Calm -- 30.03 in1016.9 mb - 0.00 in0.0 mm 0.00 in0.0 mm